Sheridan County Airport
KSHR : now visible

Airfield :











YOU CAN JOIN US ON...

 
LOGIN :

Register | Disclaimer

   EN    FR    IT 

 









Legend :    VFR   Marginal VFR   IFR   Intensive IFR   Very Intensive IFR
Visi :
Ceiling :
>= 8 km
>= 3000ft
5 to 8 km
1000 to 3000 ft
1500m to 5 km
500 to 1000 ft
800 to 1500m
200 to 500 ft
< 800m
< 200 ft
Symbols :   Thunderstorms  Fog  Heavy snow  Heavy precipitations  Wind > 20 kt







- Airport Elevation : 4021 ft
- IATA code : SHR


KSHR - Sheridan County

CURRENT METAR :
  • 221853Z AUTO 28014KT 9SM -RA FEW023 BKN038 OVC055 06/04 A2989 RMK AO2 RAB13 SLP138 P0001 T00610039

EXPIRED METARs :
  • 221843Z AUTO 29016KT 5SM -RA BR FEW021 BKN028 OVC035 06/04 A2989 RMK AO2 RAB13 P0000 T00610039
  • 221753Z AUTO 29017KT 10SM FEW025 SCT043 OVC055 06/03 A2987 RMK AO2 RAE49 SLP131 P0001 60013 T00610033 10061 20011 53015
  • 221743Z AUTO 30014KT 10SM -RA SCT025 OVC041 06/03 A2987 RMK AO2 P0001 T00560028
  • 221653Z AUTO 30016KT 10SM -RA OVC028 04/02 A2985 RMK AO2 RAB1559 SLP127 P0002 T00440022
  • 221645Z AUTO 30015KT 10SM -RA OVC028 04/02 A2985 RMK AO2 RAB1559 P0001 T00390017

TAF KSHR
Valid from the 22 at 18:00 until the 23 at 18:00 UTC


221736Z 2218/2318 32016KT P6SM -RA SCT010 OVC025
FM222000 33012KT 5SM -RA BR FEW010 OVC025
FM230200 VRB05KT P6SM -RA VCFG SCT035 OVC050
FM230700 VRB06KT 5SM BR BKN009 OVC035
KZLC FIR / North America



MET'MAP, your aeronautical weather chart ! - Copyright ORBIFLY December 2007 - Disclaimer

ORBIFLY MET'MAP TEAM :

Programming & Development : Alexandra Zaïnal
Concept & Development : Baudouin d'Aumeries
Co-Development & Prog : Marc-Olivier Méhu
Technical & hardware support : Manuel Goepfert

Contact : metmap@orbifly.com




SOURCES & CREDITS :

   NOAA       Earth
Advisory